»·PEaware :: N353QN KSNA-KBLH

N353QN :: KSNA-KBLH

FLIGHT INFORMATION

Flight Status: Arrived
Operator: Privately registered:
United States
More flights under this callsign
Pilot: Mike D. (13097)
Aircraft: Unknown
(TBM8)
More flights by this aircraft type
Origin: KSNA John Wayne-Orange Co
United States
Destination: KBLH Blythe
United States
More flights between these airports :: More routes between these airports
Route: +
File this flight plan on PilotEdge
Remarks:
Altitude:
(Current/Filed)
13,500ft
Speed:
(Current/Filed)
230kts
Departed: 18-Oct-17 04:51 PM
Arrived: 18-Oct-17 05:33 PM
Distance/Time
Traveled:
158nm/0:42
Distance/Time
To Go:
Arrived

Flight Plot

Page will automatically refresh every two minutes.

Flight plan parsing failed; only flown route is shown


Map Options




Map Legend


Flown Route
Filed Route
Departure Airport
Arrival Airport
Navaid (VOR, NDB)
Fix

Horizontal Profiles

Position Reports

Time Latitude Longitude Heading Altitude Ground
Speed
18-Oct-17 16:17 33.667712 -117.871108 37 60ft 0kts
18-Oct-17 16:18 33.667712 -117.871108 37 60ft 0kts
18-Oct-17 16:19 33.667712 -117.871108 37 60ft 0kts
18-Oct-17 16:20 33.667712 -117.871108 37 60ft 0kts
18-Oct-17 16:21 33.667712 -117.871108 37 60ft 0kts
18-Oct-17 16:22 33.667712 -117.871108 37 60ft 0kts
18-Oct-17 16:23 33.667712 -117.871108 37 60ft 0kts
18-Oct-17 16:24 33.667712 -117.871108 37 60ft 0kts
18-Oct-17 16:25 33.667712 -117.871108 37 60ft 0kts
18-Oct-17 16:26 33.667712 -117.871108 37 60ft 0kts
18-Oct-17 16:27 33.667712 -117.871108 37 60ft 0kts
18-Oct-17 16:28 33.667712 -117.871108 37 60ft 0kts
18-Oct-17 16:29 33.667712 -117.871108 37 60ft 0kts
18-Oct-17 16:30 33.667712 -117.871108 37 60ft 0kts
18-Oct-17 16:31 33.667712 -117.871108 37 60ft 0kts
18-Oct-17 16:32 33.667712 -117.871108 37 60ft 0kts
18-Oct-17 16:33 33.667712 -117.871108 37 60ft 0kts
18-Oct-17 16:34 33.667712 -117.871108 37 60ft 0kts
18-Oct-17 16:35 33.667712 -117.871108 37 60ft 0kts
18-Oct-17 16:36 33.667712 -117.871108 37 60ft 0kts
18-Oct-17 16:37 33.667712 -117.871108 37 60ft 0kts
18-Oct-17 16:38 33.667712 -117.871108 37 60ft 0kts
18-Oct-17 16:39 33.667712 -117.871108 37 60ft 0kts
18-Oct-17 16:40 33.667712 -117.871108 37 60ft 0kts
18-Oct-17 16:41 33.667712 -117.871108 37 60ft 0kts
18-Oct-17 16:42 33.667712 -117.871108 37 60ft 0kts
18-Oct-17 16:43 33.667712 -117.871108 37 60ft 0kts
18-Oct-17 16:44 33.667712 -117.871108 37 60ft 0kts
18-Oct-17 16:45 33.667495 -117.871307 37 60ft 0kts
18-Oct-17 16:46 33.667496 -117.871306 36 60ft 0kts
18-Oct-17 16:47 33.668055 -117.872000 316 60ft 6kts
18-Oct-17 16:48 33.668916 -117.871453 37 60ft 5kts
18-Oct-17 16:49 33.671361 -117.869090 37 60ft 19kts
18-Oct-17 16:50 33.673692 -117.866931 301 60ft 1kts
18-Oct-17 16:51 33.674597 -117.866723 25 60ft 0kts
18-Oct-17 16:52 33.676531 -117.865568 26 60ft 17kts
18-Oct-17 16:53 33.679653 -117.863795 338 60ft 0kts
18-Oct-17 16:54 33.679814 -117.864036 297 60ft 3kts
18-Oct-17 16:55 33.679951 -117.866114 207 60ft 14kts
18-Oct-17 16:56 33.657781 -117.878068 177 643ft 124kts
18-Oct-17 16:57 33.621297 -117.863837 164 2172ft 155kts
18-Oct-17 16:58 33.585461 -117.846883 159 2279ft 119kts
18-Oct-17 16:59 33.563531 -117.818721 86 3160ft 135kts
18-Oct-17 17:00 33.569735 -117.769853 69 4917ft 147kts
18-Oct-17 17:01 33.581181 -117.720073 69 6744ft 151kts
18-Oct-17 17:02 33.595097 -117.674293 66 8631ft 151kts
18-Oct-17 17:03 33.603830 -117.619372 68 9991ft 198kts
18-Oct-17 17:04 33.633459 -117.566927 53 12400ft 193kts
18-Oct-17 17:05 33.662711 -117.505004 66 13487ft 249kts
18-Oct-17 17:06 33.677483 -117.415897 81 13499ft 288kts
18-Oct-17 17:07 33.682901 -117.317762 85 13500ft 297kts
18-Oct-17 17:08 33.684699 -117.218351 87 13496ft 299kts
18-Oct-17 17:09 33.684926 -117.118594 88 13500ft 299kts
18-Oct-17 17:10 33.695246 -117.019523 78 13500ft 298kts
18-Oct-17 17:11 33.699272 -116.920390 85 13472ft 300kts
18-Oct-17 17:12 33.703617 -116.820169 89 13461ft 300kts
18-Oct-17 17:13 33.701539 -116.719914 90 13449ft 300kts
18-Oct-17 17:14 33.699392 -116.619739 90 13497ft 300kts
18-Oct-17 17:15 33.697284 -116.519202 90 13489ft 301kts
18-Oct-17 17:16 33.695268 -116.418645 90 13467ft 302kts
18-Oct-17 17:17 33.693153 -116.317724 90 13470ft 301kts
18-Oct-17 17:18 33.690904 -116.217042 90 13445ft 302kts
18-Oct-17 17:19 33.688611 -116.116137 90 13440ft 302kts
18-Oct-17 17:20 33.686121 -116.015132 90 13454ft 302kts
18-Oct-17 17:21 33.683514 -115.914431 90 13452ft 302kts
18-Oct-17 17:22 33.680807 -115.813786 90 13467ft 301kts
18-Oct-17 17:23 33.677966 -115.712888 90 13467ft 302kts
18-Oct-17 17:24 33.674992 -115.612447 91 13478ft 301kts
18-Oct-17 17:25 33.671863 -115.511702 91 13451ft 302kts
18-Oct-17 17:26 33.668678 -115.411037 91 13448ft 302kts
18-Oct-17 17:27 33.660901 -115.316548 101 12931ft 264kts
18-Oct-17 17:28 33.639945 -115.231389 108 10962ft 259kts
18-Oct-17 17:29 33.612698 -115.155757 106 9623ft 225kts
18-Oct-17 17:30 33.607588 -115.085137 93 8340ft 217kts
18-Oct-17 17:31 33.612941 -115.017119 83 6462ft 200kts
18-Oct-17 17:32 33.614268 -114.950810 91 4024ft 181kts
18-Oct-17 17:33 33.614642 -114.890352 88 2037ft 169kts
18-Oct-17 17:34 33.614674 -114.841121 86 1573ft 145kts
18-Oct-17 17:35 33.617493 -114.794687 89 1399ft 140kts
18-Oct-17 17:36 33.616638 -114.747286 90 870ft 136kts
18-Oct-17 17:37 33.616533 -114.713463 92 401ft 62kts
18-Oct-17 17:38 33.615323 -114.707528 268 401ft 12kts
18-Oct-17 17:39 33.615101 -114.712438 150 401ft 0kts
18-Oct-17 17:40 33.615099 -114.712437 150 401ft 0kts
18-Oct-17 17:41 33.614666 -114.712398 180 401ft 0kts
18-Oct-17 17:42 33.614664 -114.712398 180 401ft 0kts
18-Oct-17 17:43 33.614663 -114.712398 180 401ft 0kts
18-Oct-17 17:44 33.614661 -114.712398 180 401ft 0kts
18-Oct-17 17:45 33.614660 -114.712398 180 401ft 0kts
18-Oct-17 17:46 33.614658 -114.712398 180 401ft 0kts
18-Oct-17 17:47 33.614656 -114.712398 180 401ft 0kts
18-Oct-17 17:48 33.614655 -114.712398 180 401ft 0kts
18-Oct-17 17:49 33.614653 -114.712398 180 401ft 0kts
18-Oct-17 17:50 33.614652 -114.712398 181 401ft 0kts
18-Oct-17 17:51 33.614650 -114.712398 181 401ft 0kts
18-Oct-17 17:52 33.614648 -114.712398 181 401ft 0kts

Navigation Log

Ident Type
Flight plan parsing failed, navigation log unavailable